createdAt,value
2022-12-27T00:01:59.328Z,2.61
2022-12-27T00:04:17.727Z,2.54
2022-12-27T00:06:34.839Z,2.57
2022-12-27T00:08:52.203Z,2.53
2022-12-27T00:11:09.244Z,2.52
2022-12-27T00:13:26.374Z,2.47
2022-12-27T00:15:46.042Z,2.46
2022-12-27T00:18:03.435Z,2.49
2022-12-27T00:20:20.586Z,2.46
2022-12-27T00:22:37.587Z,2.53
2022-12-27T00:24:54.545Z,2.46
2022-12-27T00:27:11.607Z,2.48
2022-12-27T00:29:28.678Z,2.47
2022-12-27T00:31:45.913Z,2.44
2022-12-27T00:34:02.920Z,2.59
2022-12-27T00:36:20.969Z,2.53
2022-12-27T00:38:38.087Z,2.46
2022-12-27T00:40:55.410Z,2.40
2022-12-27T00:43:12.708Z,2.33
2022-12-27T00:45:30.057Z,2.37
2022-12-27T00:47:47.098Z,2.38
2022-12-27T00:50:04.254Z,2.40
2022-12-27T00:52:21.216Z,2.34
2022-12-27T00:54:39.267Z,2.31
2022-12-27T00:56:56.615Z,2.32
2022-12-27T00:59:13.685Z,2.26
2022-12-27T01:01:31.222Z,2.29
2022-12-27T01:03:48.353Z,2.24
2022-12-27T01:06:06.410Z,2.23
2022-12-27T01:08:24.743Z,2.21
2022-12-27T01:10:41.790Z,2.24
2022-12-27T01:12:58.843Z,2.17
2022-12-27T01:15:15.752Z,2.23
2022-12-27T01:17:32.787Z,2.26
2022-12-27T01:19:50.048Z,2.20
2022-12-27T01:22:06.964Z,2.14
2022-12-27T01:24:24.039Z,2.11
2022-12-27T01:26:41.155Z,2.09
2022-12-27T01:28:58.182Z,2.08
2022-12-27T01:31:15.298Z,2.09
2022-12-27T01:33:32.573Z,2.07
2022-12-27T01:35:49.909Z,2.06
2022-12-27T01:38:07.014Z,1.99
2022-12-27T01:40:24.046Z,1.94
2022-12-27T01:42:41.035Z,1.91
2022-12-27T01:44:58.609Z,1.90
2022-12-27T01:47:15.942Z,1.99
2022-12-27T01:49:33.006Z,1.94
2022-12-27T01:51:50.032Z,1.89
2022-12-27T01:54:07.404Z,1.99
2022-12-27T01:56:24.716Z,1.96
2022-12-27T01:58:42.087Z,1.90
2022-12-27T02:00:59.428Z,1.87
2022-12-27T02:03:16.681Z,1.81
2022-12-27T02:05:34.647Z,1.73
2022-12-27T02:07:51.630Z,1.76
2022-12-27T02:10:09.802Z,1.73
2022-12-27T02:12:26.722Z,1.68
2022-12-27T02:14:45.021Z,1.66
2022-12-27T02:17:03.047Z,1.74
2022-12-27T02:19:20.316Z,1.72
2022-12-27T02:21:37.655Z,1.69
2022-12-27T02:23:54.578Z,1.65
2022-12-27T02:26:11.896Z,1.65
2022-12-27T02:28:29.460Z,1.65
2022-12-27T02:30:47.418Z,1.62
2022-12-27T02:33:04.445Z,1.59
2022-12-27T02:35:22.675Z,1.54
2022-12-27T02:37:39.890Z,1.52
2022-12-27T02:39:57.333Z,1.49
2022-12-27T02:42:14.570Z,1.52
2022-12-27T02:44:31.488Z,1.49
2022-12-27T02:46:48.493Z,1.46
2022-12-27T02:49:05.765Z,1.39
2022-12-27T02:51:22.989Z,1.42
2022-12-27T02:53:40.169Z,1.38
2022-12-27T02:55:57.441Z,1.37
2022-12-27T02:58:15.699Z,1.37
2022-12-27T03:00:32.585Z,1.39
2022-12-27T03:02:49.971Z,1.44
2022-12-27T03:05:07.353Z,1.47
2022-12-27T03:07:24.643Z,1.53
2022-12-27T03:09:41.581Z,1.54
2022-12-27T03:11:59.767Z,1.64
2022-12-27T03:14:17.981Z,1.65
2022-12-27T03:16:34.979Z,1.67
2022-12-27T03:18:53.171Z,1.67
2022-12-27T03:21:10.195Z,1.66
2022-12-27T03:23:27.123Z,1.66
2022-12-27T03:25:44.489Z,1.69
2022-12-27T03:28:02.579Z,1.67
2022-12-27T03:30:19.489Z,1.61
2022-12-27T03:32:37.349Z,1.65
2022-12-27T03:34:54.494Z,1.64
2022-12-27T03:37:12.770Z,1.64
2022-12-27T03:39:29.832Z,1.66
2022-12-27T03:41:46.881Z,1.59
2022-12-27T03:44:03.937Z,1.62
2022-12-27T03:46:21.178Z,1.62
2022-12-27T03:48:38.166Z,1.63
2022-12-27T03:50:55.131Z,1.65
2022-12-27T03:53:12.142Z,1.66
2022-12-27T03:55:33.505Z,1.69
2022-12-27T03:57:51.022Z,1.71
2022-12-27T04:00:08.233Z,1.77
2022-12-27T04:02:25.482Z,1.78
2022-12-27T04:04:42.631Z,1.80
2022-12-27T04:06:59.692Z,1.80
2022-12-27T04:09:17.612Z,1.81
2022-12-27T04:11:34.542Z,1.79
2022-12-27T04:13:51.593Z,1.80
2022-12-27T04:16:08.950Z,1.82
2022-12-27T04:18:26.235Z,1.83
2022-12-27T04:20:43.344Z,1.90
2022-12-27T04:23:00.310Z,1.92
2022-12-27T04:25:17.267Z,1.99
2022-12-27T04:27:34.263Z,2.01
2022-12-27T04:29:51.581Z,2.02
2022-12-27T04:32:08.856Z,2.06
2022-12-27T04:34:26.233Z,2.04
2022-12-27T04:36:43.082Z,2.02
2022-12-27T04:39:00.158Z,2.03
2022-12-27T04:41:17.183Z,1.98
2022-12-27T04:43:35.037Z,2.00
2022-12-27T04:45:51.925Z,1.95
2022-12-27T04:48:09.270Z,1.95
2022-12-27T04:50:27.296Z,1.96
2022-12-27T04:52:44.381Z,1.96
2022-12-27T04:55:01.821Z,1.96
2022-12-27T04:57:19.699Z,1.99
2022-12-27T04:59:36.669Z,1.97
2022-12-27T05:01:54.637Z,1.96
2022-12-27T05:04:11.755Z,1.97
2022-12-27T05:06:29.097Z,1.97
2022-12-27T05:08:46.329Z,2.01
2022-12-27T05:11:03.362Z,2.01
2022-12-27T05:13:20.429Z,1.99
2022-12-27T05:15:37.591Z,1.96
2022-12-27T05:17:54.651Z,2.01
2022-12-27T05:20:11.599Z,2.00
2022-12-27T05:22:28.848Z,1.99
2022-12-27T05:24:46.132Z,2.01
2022-12-27T05:27:03.143Z,2.00
2022-12-27T05:29:20.895Z,2.00
2022-12-27T05:31:39.452Z,2.01
2022-12-27T05:33:56.761Z,2.00
2022-12-27T05:36:13.686Z,1.96
2022-12-27T05:38:31.559Z,1.94
2022-12-27T05:40:48.552Z,1.89
2022-12-27T05:43:05.772Z,1.84
2022-12-27T05:45:22.715Z,1.79
2022-12-27T05:47:39.923Z,1.80
2022-12-27T05:49:56.896Z,1.76
2022-12-27T05:52:13.839Z,1.78
2022-12-27T05:54:31.148Z,1.76
2022-12-27T05:56:49.177Z,1.77
2022-12-27T05:59:06.413Z,1.80
2022-12-27T06:01:23.516Z,1.85
2022-12-27T06:03:40.518Z,1.88
2022-12-27T06:05:57.569Z,1.87
2022-12-27T06:08:14.551Z,1.88
2022-12-27T06:10:31.788Z,1.87
2022-12-27T06:12:49.721Z,1.80
2022-12-27T06:15:06.756Z,1.78
2022-12-27T06:17:23.755Z,1.81
2022-12-27T06:19:40.823Z,1.79
2022-12-27T06:21:58.058Z,1.80
2022-12-27T06:24:15.296Z,1.84
2022-12-27T06:26:32.344Z,1.80
2022-12-27T06:28:49.795Z,1.75
2022-12-27T06:31:06.947Z,1.73
2022-12-27T06:33:25.129Z,1.70
2022-12-27T06:35:42.170Z,1.68
2022-12-27T06:38:00.166Z,1.67
2022-12-27T06:40:17.475Z,1.75
2022-12-27T06:42:34.705Z,1.70
2022-12-27T06:44:51.729Z,1.64
2022-12-27T06:47:08.792Z,1.64
2022-12-27T06:49:25.801Z,1.59
2022-12-27T06:51:43.011Z,1.64
2022-12-27T06:54:00.057Z,1.68
2022-12-27T06:56:17.168Z,1.64
2022-12-27T06:58:34.027Z,1.64
2022-12-27T07:00:50.953Z,1.64
2022-12-27T07:03:08.287Z,1.63
2022-12-27T07:05:25.420Z,1.61
2022-12-27T07:07:42.348Z,1.62
2022-12-27T07:09:59.339Z,1.62
2022-12-27T07:12:16.419Z,1.64
2022-12-27T07:14:33.600Z,1.64
2022-12-27T07:16:50.616Z,1.65
2022-12-27T07:19:08.667Z,1.64
2022-12-27T07:21:25.680Z,1.64
2022-12-27T07:23:42.807Z,1.64
2022-12-27T07:25:59.846Z,1.59
2022-12-27T07:28:16.803Z,1.62
2022-12-27T07:30:33.845Z,1.57
2022-12-27T07:32:51.102Z,1.53
2022-12-27T07:35:07.994Z,1.50
2022-12-27T07:37:25.211Z,1.55
2022-12-27T07:39:42.475Z,1.46
2022-12-27T07:42:03.322Z,1.47
2022-12-27T07:44:25.125Z,1.45
2022-12-27T07:46:43.372Z,1.42
2022-12-27T07:49:00.433Z,1.38
2022-12-27T07:51:18.429Z,1.33
2022-12-27T07:53:35.483Z,1.32
2022-12-27T07:55:52.303Z,1.30
2022-12-27T07:58:09.610Z,1.28
2022-12-27T08:00:26.944Z,1.28
2022-12-27T08:02:44.160Z,1.31
2022-12-27T08:05:01.022Z,1.33
2022-12-27T08:07:17.998Z,1.32
2022-12-27T08:09:36.011Z,1.29
2022-12-27T08:11:53.003Z,1.31
2022-12-27T08:14:10.069Z,1.32
2022-12-27T08:16:27.370Z,1.33
2022-12-27T08:18:44.718Z,1.38
2022-12-27T08:21:01.959Z,1.49
2022-12-27T08:23:19.226Z,1.48
2022-12-27T08:25:36.204Z,1.51
2022-12-27T08:27:54.527Z,1.57
2022-12-27T08:30:11.567Z,1.57
2022-12-27T08:32:28.809Z,1.56
2022-12-27T08:34:46.134Z,1.59
2022-12-27T08:37:03.297Z,1.64
2022-12-27T08:39:20.574Z,1.68
2022-12-27T08:41:38.623Z,1.73
2022-12-27T08:43:56.802Z,1.77
2022-12-27T08:46:13.879Z,1.82
2022-12-27T08:48:31.879Z,1.94
2022-12-27T08:50:48.950Z,1.98
2022-12-27T08:53:05.905Z,1.90
2022-12-27T08:55:22.844Z,1.89
2022-12-27T08:57:39.823Z,1.89
2022-12-27T08:59:57.090Z,1.95
2022-12-27T09:02:14.401Z,2.01
2022-12-27T09:04:31.419Z,2.08
2022-12-27T09:06:48.426Z,2.14
2022-12-27T09:09:05.494Z,2.27
2022-12-27T09:11:22.819Z,2.41
2022-12-27T09:13:39.820Z,2.42
2022-12-27T09:15:57.106Z,2.49
2022-12-27T09:18:14.482Z,2.52
2022-12-27T09:20:31.780Z,2.60
2022-12-27T09:22:49.075Z,2.68
2022-12-27T09:25:06.351Z,2.75
2022-12-27T09:27:23.630Z,2.89
2022-12-27T09:29:46.384Z,3.00
2022-12-27T09:32:05.173Z,3.07
2022-12-27T09:34:22.237Z,3.18
2022-12-27T09:36:39.289Z,3.33
2022-12-27T09:38:56.517Z,3.43
2022-12-27T09:41:16.619Z,3.51
2022-12-27T09:43:41.327Z,3.66
2022-12-27T09:45:59.334Z,3.70
2022-12-27T09:48:16.377Z,3.82
2022-12-27T09:50:33.792Z,3.90
2022-12-27T09:52:50.818Z,3.90
2022-12-27T09:55:08.557Z,3.96
2022-12-27T09:57:25.790Z,4.04
2022-12-27T09:59:42.748Z,4.09
2022-12-27T10:02:01.498Z,4.11
2022-12-27T10:04:18.807Z,4.20
2022-12-27T10:06:37.135Z,4.30
2022-12-27T10:08:54.228Z,4.36
2022-12-27T10:11:11.501Z,4.47
2022-12-27T10:13:28.788Z,4.56
2022-12-27T10:15:46.038Z,4.68
2022-12-27T10:18:03.314Z,4.73
2022-12-27T10:20:20.364Z,4.78
2022-12-27T10:22:37.315Z,4.82
2022-12-27T10:24:54.245Z,4.93
2022-12-27T10:27:13.553Z,4.98
2022-12-27T10:29:30.588Z,5.06
2022-12-27T10:31:48.553Z,5.13
2022-12-27T10:34:10.548Z,5.24
2022-12-27T10:36:27.757Z,5.28
2022-12-27T10:38:44.780Z,5.35
2022-12-27T10:41:02.258Z,5.44
2022-12-27T10:43:19.850Z,5.58
2022-12-27T10:45:37.217Z,5.66
2022-12-27T10:47:54.470Z,5.73
2022-12-27T10:50:12.443Z,5.76
2022-12-27T10:52:29.715Z,5.81
2022-12-27T10:54:46.737Z,5.89
2022-12-27T10:57:04.044Z,5.92
2022-12-27T10:59:21.455Z,5.96
2022-12-27T11:01:38.594Z,6.01
2022-12-27T11:03:56.042Z,6.09
2022-12-27T11:06:13.083Z,6.16
2022-12-27T11:08:30.489Z,6.19
2022-12-27T11:10:47.805Z,6.22
2022-12-27T11:13:05.193Z,6.17
2022-12-27T11:15:23.189Z,6.22
2022-12-27T11:17:40.235Z,6.15
2022-12-27T11:19:58.344Z,6.17
2022-12-27T11:22:15.415Z,6.08
2022-12-27T11:24:35.279Z,6.05
2022-12-27T11:26:54.093Z,6.00
2022-12-27T11:29:11.558Z,5.98
2022-12-27T11:31:28.635Z,5.86
2022-12-27T11:33:47.135Z,5.85
2022-12-27T11:36:04.381Z,5.78
2022-12-27T11:38:21.762Z,5.77
2022-12-27T11:40:39.016Z,5.82
2022-12-27T11:42:57.295Z,5.82
2022-12-27T11:45:17.401Z,5.82
2022-12-27T11:47:37.163Z,5.87
2022-12-27T11:49:54.513Z,5.86
2022-12-27T11:52:11.503Z,5.80
2022-12-27T11:54:28.499Z,5.83
2022-12-27T11:56:45.464Z,5.86
2022-12-27T11:59:03.502Z,5.87
2022-12-27T12:01:20.448Z,5.95
2022-12-27T12:03:37.640Z,5.97
2022-12-27T12:05:54.627Z,5.96
2022-12-27T12:08:11.644Z,5.96
2022-12-27T12:10:28.690Z,5.93
2022-12-27T12:12:46.713Z,5.95
2022-12-27T12:15:03.795Z,5.94
2022-12-27T12:17:20.871Z,5.95
2022-12-27T12:19:37.965Z,5.99
2022-12-27T12:21:55.242Z,6.04
2022-12-27T12:24:12.208Z,6.09
2022-12-27T12:26:29.883Z,6.13
2022-12-27T12:28:58.278Z,6.17
2022-12-27T12:31:16.260Z,6.22
2022-12-27T12:33:33.288Z,6.20
2022-12-27T12:35:50.602Z,6.15
2022-12-27T12:38:07.492Z,6.13
2022-12-27T12:40:24.769Z,6.15
2022-12-27T12:42:42.097Z,6.22
2022-12-27T12:44:59.150Z,6.19
2022-12-27T12:47:17.142Z,6.19
2022-12-27T12:49:34.391Z,6.16
2022-12-27T12:51:51.364Z,6.23
2022-12-27T12:54:08.686Z,6.23
2022-12-27T12:56:25.698Z,6.17
2022-12-27T12:58:43.653Z,6.19
2022-12-27T13:01:01.004Z,6.29
2022-12-27T13:03:19.180Z,6.29
2022-12-27T13:05:36.188Z,6.20
2022-12-27T13:07:53.391Z,6.10
2022-12-27T13:10:10.552Z,6.02
2022-12-27T13:12:27.904Z,5.97
2022-12-27T13:14:45.149Z,5.96
2022-12-27T13:17:02.209Z,5.89
2022-12-27T13:19:19.287Z,5.94
2022-12-27T13:21:36.703Z,5.98
2022-12-27T13:23:53.691Z,5.97
2022-12-27T13:26:10.688Z,5.91
2022-12-27T13:28:27.759Z,5.88
2022-12-27T13:30:44.845Z,5.87
2022-12-27T13:33:01.815Z,5.84
2022-12-27T13:35:20.409Z,5.82
2022-12-27T13:37:39.005Z,5.78
2022-12-27T13:39:56.053Z,5.75
2022-12-27T13:42:13.131Z,5.73
2022-12-27T13:44:30.142Z,5.70
2022-12-27T13:46:47.166Z,5.69
2022-12-27T13:49:04.488Z,5.66
2022-12-27T13:51:21.772Z,5.64
2022-12-27T13:53:38.856Z,5.63
2022-12-27T13:55:56.137Z,5.60
2022-12-27T13:58:13.091Z,5.60
2022-12-27T14:00:30.385Z,5.57
2022-12-27T14:02:47.802Z,5.53
2022-12-27T14:05:05.882Z,5.48
2022-12-27T14:07:22.821Z,5.46
2022-12-27T14:09:41.099Z,5.43
2022-12-27T14:11:58.115Z,5.42
2022-12-27T14:14:16.376Z,5.42
2022-12-27T14:16:33.617Z,5.38
2022-12-27T14:18:50.648Z,5.34
2022-12-27T14:21:07.686Z,5.33
2022-12-27T14:23:24.726Z,5.31
2022-12-27T14:25:42.024Z,5.23
2022-12-27T14:27:58.969Z,5.15
2022-12-27T14:30:16.869Z,5.09
2022-12-27T14:32:33.892Z,5.08
2022-12-27T14:34:55.952Z,5.00
2022-12-27T14:37:17.050Z,4.91
2022-12-27T14:39:34.294Z,4.96
2022-12-27T14:41:51.554Z,4.88
2022-12-27T14:44:08.515Z,4.89
2022-12-27T14:46:25.791Z,4.81
2022-12-27T14:48:43.055Z,4.74
2022-12-27T14:51:00.145Z,4.68
2022-12-27T14:53:17.531Z,4.64
2022-12-27T14:55:34.455Z,4.61
2022-12-27T14:57:52.649Z,4.57
2022-12-27T15:00:09.860Z,4.51
2022-12-27T15:02:28.051Z,4.47
2022-12-27T15:04:45.220Z,4.36
2022-12-27T15:07:02.228Z,4.39
2022-12-27T15:09:19.243Z,4.34
2022-12-27T15:11:36.234Z,4.23
2022-12-27T15:13:53.406Z,4.19
2022-12-27T15:16:14.959Z,4.16
2022-12-27T15:18:32.471Z,4.19
2022-12-27T15:20:49.392Z,4.18
2022-12-27T15:23:06.634Z,4.14
2022-12-27T15:25:23.897Z,4.13
2022-12-27T15:27:41.223Z,4.14
2022-12-27T15:29:58.238Z,4.14
2022-12-27T15:32:15.218Z,4.07
2022-12-27T15:34:33.204Z,4.05
2022-12-27T15:36:50.205Z,4.00
2022-12-27T15:39:07.286Z,3.97
2022-12-27T15:41:24.307Z,3.94
2022-12-27T15:43:42.389Z,3.94
2022-12-27T15:45:59.595Z,3.93
2022-12-27T15:48:16.876Z,3.93
2022-12-27T15:50:33.743Z,3.95
2022-12-27T15:52:50.755Z,3.94
2022-12-27T15:55:07.783Z,3.90
2022-12-27T15:57:24.816Z,3.97
2022-12-27T15:59:41.993Z,3.92
2022-12-27T16:01:58.905Z,3.86
2022-12-27T16:04:16.186Z,3.83
2022-12-27T16:06:34.560Z,3.91
2022-12-27T16:08:51.790Z,3.89
2022-12-27T16:11:08.788Z,3.83
2022-12-27T16:13:27.069Z,3.82
2022-12-27T16:15:44.159Z,3.82
2022-12-27T16:18:01.227Z,3.85
2022-12-27T16:20:18.161Z,3.84
2022-12-27T16:22:35.418Z,3.89
2022-12-27T16:24:52.687Z,3.87
2022-12-27T16:27:09.730Z,3.86
2022-12-27T16:29:26.797Z,3.85
2022-12-27T16:31:45.896Z,3.87
2022-12-27T16:34:03.136Z,3.88
2022-12-27T16:36:20.453Z,3.89
2022-12-27T16:38:37.370Z,3.88
2022-12-27T16:40:54.596Z,3.88
2022-12-27T16:43:11.638Z,3.90
2022-12-27T16:45:28.918Z,3.97
2022-12-27T16:47:46.211Z,3.93
2022-12-27T16:50:04.198Z,3.90
2022-12-27T16:52:21.250Z,3.85
2022-12-27T16:54:38.488Z,3.88
2022-12-27T16:56:55.523Z,3.92
2022-12-27T16:59:12.595Z,3.90
2022-12-27T17:01:30.097Z,3.89
2022-12-27T17:03:47.289Z,3.90
2022-12-27T17:08:41.675Z,3.97
2022-12-27T17:10:58.656Z,3.94
2022-12-27T17:13:16.905Z,3.94
2022-12-27T17:15:33.845Z,3.98
2022-12-27T17:17:51.814Z,3.93
2022-12-27T17:20:09.154Z,3.91
2022-12-27T17:22:33.886Z,3.91
2022-12-27T17:24:51.944Z,3.95
2022-12-27T17:27:09.924Z,3.95
2022-12-27T17:29:29.850Z,3.94
2022-12-27T17:31:47.154Z,3.94
2022-12-27T17:34:04.087Z,3.91
2022-12-27T17:36:21.386Z,3.87
2022-12-27T17:38:38.721Z,3.89
2022-12-27T17:40:55.847Z,3.93
2022-12-27T17:43:12.767Z,3.92
2022-12-27T17:45:29.738Z,3.91
2022-12-27T17:47:46.809Z,3.92
2022-12-27T17:50:04.076Z,3.90
2022-12-27T17:52:21.076Z,3.90
2022-12-27T17:54:38.092Z,3.91
2022-12-27T17:56:56.386Z,3.86
2022-12-27T17:59:13.324Z,3.88
2022-12-27T18:01:30.478Z,3.85
2022-12-27T18:03:48.500Z,3.84
2022-12-27T18:06:05.572Z,3.84
2022-12-27T18:08:22.563Z,3.85
2022-12-27T18:10:39.632Z,3.88
2022-12-27T18:12:56.669Z,3.86
2022-12-27T18:15:13.777Z,3.87
2022-12-27T18:17:31.870Z,3.86
2022-12-27T18:19:51.642Z,3.85
2022-12-27T18:22:08.493Z,3.86
2022-12-27T18:24:25.542Z,3.86
2022-12-27T18:26:42.553Z,3.80
2022-12-27T18:28:59.581Z,3.76
2022-12-27T18:31:17.845Z,3.68
2022-12-27T18:33:35.968Z,3.59
2022-12-27T18:35:53.170Z,3.49
2022-12-27T18:38:10.430Z,3.46
2022-12-27T18:40:27.315Z,3.41
2022-12-27T18:42:44.425Z,3.35
2022-12-27T18:45:01.340Z,3.29
2022-12-27T18:47:18.604Z,3.25
2022-12-27T18:49:35.921Z,3.23
2022-12-27T18:51:54.265Z,3.22
2022-12-27T18:54:11.550Z,3.30
2022-12-27T18:56:28.662Z,3.30
2022-12-27T18:58:45.870Z,3.42
2022-12-27T19:01:03.060Z,3.46
2022-12-27T19:03:21.453Z,3.46
2022-12-27T19:05:38.832Z,3.52
2022-12-27T19:07:55.827Z,3.56
2022-12-27T19:10:13.123Z,3.61
2022-12-27T19:12:31.404Z,3.61
2022-12-27T19:14:48.437Z,3.64
2022-12-27T19:17:10.996Z,3.70
2022-12-27T19:19:28.669Z,3.69
2022-12-27T19:21:47.013Z,3.73
2022-12-27T19:24:03.966Z,3.74
2022-12-27T19:26:21.235Z,3.72
2022-12-27T19:28:38.514Z,3.74
2022-12-27T19:30:56.447Z,3.76
2022-12-27T19:33:13.691Z,3.72
2022-12-27T19:35:31.024Z,3.72
2022-12-27T19:37:48.032Z,3.79
2022-12-27T19:40:05.096Z,3.79
2022-12-27T19:42:22.167Z,3.80
2022-12-27T19:44:39.100Z,3.82
2022-12-27T19:46:56.408Z,3.82
2022-12-27T19:51:50.598Z,3.73
2022-12-27T19:54:07.838Z,3.64
2022-12-27T19:56:24.951Z,3.60
2022-12-27T19:58:42.398Z,3.57
2022-12-27T20:00:59.421Z,3.54
2022-12-27T20:03:16.504Z,3.46
2022-12-27T20:06:12.442Z,3.37
2022-12-27T20:08:10.856Z,3.29
2022-12-27T20:10:28.106Z,3.28
2022-12-27T20:12:45.156Z,3.21
2022-12-27T20:15:02.487Z,3.19
2022-12-27T20:17:19.763Z,3.05
2022-12-27T20:19:36.836Z,3.06
2022-12-27T20:21:54.076Z,3.01
2022-12-27T20:24:11.144Z,2.98
2022-12-27T20:26:28.137Z,2.99
2022-12-27T20:28:45.183Z,3.01
2022-12-27T20:31:02.239Z,3.01
2022-12-27T20:33:19.659Z,3.00
2022-12-27T20:35:36.683Z,2.93
2022-12-27T20:37:53.724Z,2.91
2022-12-27T20:40:10.770Z,2.83
2022-12-27T20:42:27.879Z,2.78
2022-12-27T20:44:45.971Z,2.72
2022-12-27T20:47:02.955Z,2.65
2022-12-27T20:49:19.877Z,2.60
2022-12-27T20:51:38.151Z,2.57
2022-12-27T20:53:55.221Z,2.53
2022-12-27T20:56:12.312Z,2.45
2022-12-27T20:58:29.566Z,2.43
2022-12-27T21:00:46.631Z,2.41
2022-12-27T21:03:03.702Z,2.41
2022-12-27T21:05:20.770Z,2.39
2022-12-27T21:07:37.730Z,2.41
2022-12-27T21:09:54.654Z,2.42
2022-12-27T21:12:12.681Z,2.52
2022-12-27T21:14:29.926Z,2.56
2022-12-27T21:16:47.028Z,2.55
2022-12-27T21:19:04.314Z,2.56
2022-12-27T21:21:24.617Z,2.56
2022-12-27T21:23:43.865Z,2.54
2022-12-27T21:26:00.921Z,2.52
2022-12-27T21:28:18.249Z,2.53
2022-12-27T21:30:35.293Z,2.50
2022-12-27T21:32:52.206Z,2.50
2022-12-27T21:35:09.122Z,2.49
2022-12-27T21:37:26.194Z,2.49
2022-12-27T21:39:43.045Z,2.46
2022-12-27T21:42:00.103Z,2.49
2022-12-27T21:44:17.368Z,2.46
2022-12-27T21:46:34.313Z,2.44
2022-12-27T21:48:51.265Z,2.43
2022-12-27T21:51:08.544Z,2.42
2022-12-27T21:53:25.531Z,2.41
2022-12-27T21:55:42.795Z,2.44
2022-12-27T21:58:01.047Z,2.39
2022-12-27T22:00:19.072Z,2.35
2022-12-27T22:02:36.412Z,2.32
2022-12-27T22:04:53.428Z,2.31
2022-12-27T22:07:10.454Z,2.30
2022-12-27T22:09:27.489Z,2.25
2022-12-27T22:11:44.566Z,2.26
2022-12-27T22:14:01.831Z,2.23
2022-12-27T22:16:18.872Z,2.20
2022-12-27T22:18:36.128Z,2.18
2022-12-27T22:20:53.122Z,2.18
2022-12-27T22:23:10.452Z,2.12
2022-12-27T22:25:27.416Z,2.10
2022-12-27T22:27:44.407Z,2.13
2022-12-27T22:30:01.316Z,2.16
2022-12-27T22:32:18.404Z,2.16
2022-12-27T22:34:35.396Z,2.16
2022-12-27T22:36:52.413Z,2.18
2022-12-27T22:39:09.664Z,2.18
2022-12-27T22:41:26.722Z,2.17
2022-12-27T22:43:43.646Z,2.16
2022-12-27T22:46:00.909Z,2.16
2022-12-27T22:48:20.527Z,2.16
2022-12-27T22:50:37.426Z,2.17
2022-12-27T22:52:54.505Z,2.18
2022-12-27T22:55:11.500Z,2.12
2022-12-27T22:57:29.871Z,2.05
2022-12-27T22:59:47.209Z,2.05
2022-12-27T23:02:04.999Z,2.09
2022-12-27T23:04:22.053Z,2.10
2022-12-27T23:06:39.306Z,2.14
2022-12-27T23:08:56.542Z,2.11
2022-12-27T23:11:13.854Z,2.09
2022-12-27T23:13:31.422Z,2.16
2022-12-27T23:15:48.723Z,2.19
2022-12-27T23:18:05.816Z,2.14
2022-12-27T23:20:23.144Z,2.22
2022-12-27T23:22:40.377Z,2.21
2022-12-27T23:24:57.663Z,2.17
2022-12-27T23:27:15.413Z,2.18
2022-12-27T23:29:32.449Z,2.22
2022-12-27T23:31:55.134Z,2.28
2022-12-27T23:34:13.137Z,2.24
2022-12-27T23:36:31.696Z,2.25
2022-12-27T23:38:48.782Z,2.28
2022-12-27T23:41:05.936Z,2.37
2022-12-27T23:43:50.946Z,2.35
2022-12-27T23:46:00.480Z,2.37
2022-12-27T23:48:17.544Z,2.37
2022-12-27T23:50:37.289Z,2.39
2022-12-27T23:52:54.604Z,2.43
2022-12-27T23:55:12.023Z,2.45
2022-12-27T23:57:30.025Z,2.44
2022-12-27T23:59:47.216Z,2.46
